Time;durP1;ratioP1;P1;durP2;ratioP2;P2;SDS_P1;SDS_P2;PMS_P1;PMS_P2;Temp;Humidity;BMP_temperature;BMP_pressure;BME280_temperature;BME280_humidity;BME280_pressure;Samples;Min_cycle;Max_cycle;Signal;HPM_P1;HPM_P2
2023/03/29 00:00:12;;;;;;;7.60;2.33;;;;;;;;;;5043065;28;20025;-41
2023/03/29 00:02:38;;;;;;;6.85;3.35;;;;;;;;;;5058133;28;20029;-44
2023/03/29 00:05:05;;;;;;;7.55;3.17;;;;;;;;;;5060035;28;20040;-42
2023/03/29 00:07:34;;;;;;;12.10;3.95;;;;;;;;;;5038772;28;20021;-41
2023/03/29 00:10:01;;;;;;;9.25;2.67;;;;;;;;;;5041101;28;20087;-41
2023/03/29 00:12:27;;;;;;;8.30;3.75;;;;;;;;;;5044927;28;20048;-45
2023/03/29 00:14:52;;;;;;;7.93;3.03;;;;;;;;;;5044696;28;20390;-42
2023/03/29 00:17:18;;;;;;;7.63;3.33;;;;;;;;;;5057972;28;20136;-42
2023/03/29 00:19:44;;;;;;;5.82;3.00;;;;;;;;;;5061945;28;20029;-42
2023/03/29 00:22:10;;;;;;;8.27;2.75;;;;;;;;;;5042968;28;20048;-47
2023/03/29 00:24:35;;;;;;;7.57;3.38;;;;;;;;;;5044258;28;20041;-48
2023/03/29 00:27:01;;;;;;;4.70;2.50;;;;;;;;;;5035132;28;20037;-45
2023/03/29 00:29:27;;;;;;;11.18;3.55;;;;;;;;;;5035808;28;20024;-41
2023/03/29 00:31:53;;;;;;;12.70;3.40;;;;;;;;;;5037895;28;20041;-44
2023/03/29 00:34:23;;;;;;;8.27;3.25;;;;;;;;;;5033044;28;20069;-44
2023/03/29 00:36:51;;;;;;;8.25;3.83;;;;;;;;;;5040315;28;20399;-42
2023/03/29 00:39:19;;;;;;;9.63;3.03;;;;;;;;;;5041086;28;20063;-41
2023/03/29 00:41:49;;;;;;;7.35;2.15;;;;;;;;;;5039959;28;20059;-42
2023/03/29 00:44:54;;;;;;;10.07;3.45;;;;;;;;;;5035801;28;20026;-41
2023/03/29 00:47:49;;;;;;;10.48;3.83;;;;;;;;;;5037311;28;20045;-45
2023/03/29 00:50:21;;;;;;;11.35;4.13;;;;;;;;;;5035417;28;20108;-44
2023/03/29 00:53:01;;;;;;;;;;;;;;;;;;5043049;28;20490;-42
2023/03/29 00:55:31;;;;;;;7.00;2.85;;;;;;;;;;5041607;28;19948;-42
2023/03/29 00:57:57;;;;;;;8.05;3.33;;;;;;;;;;5043849;28;20032;-48
2023/03/29 01:00:30;;;;;;;8.40;3.42;;;;;;;;;;5034390;28;20128;-45
2023/03/29 01:02:58;;;;;;;12.93;3.92;;;;;;;;;;5031941;28;20028;-48
2023/03/29 01:05:34;;;;;;;7.53;3.35;;;;;;;;;;5037448;28;20040;-43
2023/03/29 01:08:05;;;;;;;8.38;3.47;;;;;;;;;;5039290;28;20032;-42
2023/03/29 01:10:41;;;;;;;11.63;4.00;;;;;;;;;;5040578;28;20127;-42
2023/03/29 01:13:15;;;;;;;7.22;3.42;;;;;;;;;;5042685;28;20045;-45
2023/03/29 01:15:43;;;;;;;11.00;4.53;;;;;;;;;;5045485;28;20106;-42
2023/03/29 01:18:09;;;;;;;11.95;4.75;;;;;;;;;;5062220;28;20389;-44
2023/03/29 01:21:04;;;;;;;9.73;4.07;;;;;;;;;;5058619;28;20048;-43
2023/03/29 01:23:44;;;;;;;9.38;3.65;;;;;;;;;;5058209;28;20473;-45
2023/03/29 01:26:25;;;;;;;8.23;3.72;;;;;;;;;;5065405;28;20032;-42
2023/03/29 01:28:51;;;;;;;7.05;3.50;;;;;;;;;;5056842;28;20029;-42
2023/03/29 01:31:23;;;;;;;6.78;3.75;;;;;;;;;;5061384;28;20082;-43
2023/03/29 01:33:54;;;;;;;9.65;4.13;;;;;;;;;;5058094;28;20021;-45
2023/03/29 01:36:41;;;;;;;6.93;3.78;;;;;;;;;;5057336;28;20452;-43
2023/03/29 01:39:07;;;;;;;10.65;4.88;;;;;;;;;;5062548;28;20032;-42
2023/03/29 01:41:42;;;;;;;9.35;4.43;;;;;;;;;;5064937;28;20082;-42
2023/03/29 01:44:17;;;;;;;10.18;5.80;;;;;;;;;;5061581;28;20393;-42
2023/03/29 01:47:00;;;;;;;9.00;4.10;;;;;;;;;;5062270;28;20071;-44
2023/03/29 01:49:41;;;;;;;7.63;3.47;;;;;;;;;;5062479;28;20139;-41
2023/03/29 01:52:24;;;;;;;10.93;3.58;;;;;;;;;;5061930;28;20132;-42
2023/03/29 01:55:01;;;;;;;8.50;3.42;;;;;;;;;;5056336;28;20116;-42
2023/03/29 01:57:28;;;;;;;14.32;3.58;;;;;;;;;;5063085;28;20094;-48
2023/03/29 01:59:56;;;;;;;10.55;3.50;;;;;;;;;;5062207;28;20047;-41
2023/03/29 02:02:25;;;;;;;10.73;3.78;;;;;;;;;;5060096;28;20037;-44
2023/03/29 02:04:53;;;;;;;9.65;3.47;;;;;;;;;;5058917;28;20029;-41
2023/03/29 02:07:23;;;;;;;12.82;3.90;;;;;;;;;;5057075;28;20566;-42
2023/03/29 02:09:51;;;;;;;7.85;3.80;;;;;;;;;;5063270;28;20028;-42
2023/03/29 02:12:17;;;;;;;16.98;4.43;;;;;;;;;;5047927;28;20040;-44
2023/03/29 02:14:43;;;;;;;11.25;4.47;;;;;;;;;;5046943;28;20017;-45
2023/03/29 02:17:21;;;;;;;9.95;3.72;;;;;;;;;;5046868;28;21443;-41
2023/03/29 02:19:50;;;;;;;8.77;3.83;;;;;;;;;;5045339;28;20029;-41
2023/03/29 02:22:23;;;;;;;8.68;4.05;;;;;;;;;;5046005;28;20090;-42
2023/03/29 02:24:51;;;;;;;8.00;3.53;;;;;;;;;;5045545;28;20021;-46
2023/03/29 02:27:17;;;;;;;7.25;4.00;;;;;;;;;;5037572;28;20044;-45
2023/03/29 02:29:42;;;;;;;9.80;3.90;;;;;;;;;;5041951;28;20018;-45
2023/03/29 02:32:13;;;;;;;11.43;3.92;;;;;;;;;;5047074;28;20037;-45
2023/03/29 02:34:53;;;;;;;9.23;4.07;;;;;;;;;;5046109;28;20052;-41
2023/03/29 02:37:20;;;;;;;9.73;3.58;;;;;;;;;;5057173;28;20041;-45
2023/03/29 02:39:48;;;;;;;9.13;3.72;;;;;;;;;;5057868;28;20079;-45
2023/03/29 02:42:16;;;;;;;8.60;3.97;;;;;;;;;;5064239;28;20440;-42
2023/03/29 02:44:44;;;;;;;8.93;4.10;;;;;;;;;;5064095;28;20017;-42
2023/03/29 02:47:18;;;;;;;12.38;4.35;;;;;;;;;;5061776;28;20068;-41
2023/03/29 02:49:44;;;;;;;7.38;3.75;;;;;;;;;;5057477;28;20036;-41
2023/03/29 02:52:18;;;;;;;13.68;4.13;;;;;;;;;;5057303;28;20032;-42
2023/03/29 02:54:46;;;;;;;12.48;3.70;;;;;;;;;;5055321;28;20545;-41
2023/03/29 02:57:12;;;;;;;8.65;3.55;;;;;;;;;;5061268;28;20123;-42
2023/03/29 02:59:39;;;;;;;14.45;3.15;;;;;;;;;;5056918;28;20021;-41
2023/03/29 03:02:05;;;;;;;9.48;3.67;;;;;;;;;;5057812;28;20048;-41
2023/03/29 03:04:34;;;;;;;14.98;4.38;;;;;;;;;;5055839;28;20067;-43
2023/03/29 03:07:00;;;;;;;4.93;2.92;;;;;;;;;;5058901;28;20445;-42
2023/03/29 03:09:26;;;;;;;6.15;3.08;;;;;;;;;;5057099;28;20486;-42
2023/03/29 03:11:51;;;;;;;6.53;3.10;;;;;;;;;;5061792;28;20033;-41
2023/03/29 03:14:17;;;;;;;11.20;2.92;;;;;;;;;;5058969;28;20055;-41
2023/03/29 03:16:43;;;;;;;11.73;3.22;;;;;;;;;;5057225;28;20037;-41
2023/03/29 03:19:09;;;;;;;9.60;3.25;;;;;;;;;;5056498;28;20093;-43
2023/03/29 03:21:36;;;;;;;10.88;3.50;;;;;;;;;;5058618;28;20125;-42
2023/03/29 03:24:02;;;;;;;8.20;3.13;;;;;;;;;;5056410;28;20020;-41
2023/03/29 03:26:28;;;;;;;9.98;2.78;;;;;;;;;;5060506;28;20070;-44
2023/03/29 03:28:55;;;;;;;11.43;3.22;;;;;;;;;;5056230;28;20041;-43
2023/03/29 03:31:20;;;;;;;14.90;3.55;;;;;;;;;;5057504;28;20032;-41
2023/03/29 03:33:46;;;;;;;8.15;3.75;;;;;;;;;;5063130;28;20051;-42
2023/03/29 03:36:12;;;;;;;8.68;3.05;;;;;;;;;;5051663;28;20378;-50
2023/03/29 03:38:38;;;;;;;9.27;3.38;;;;;;;;;;5039670;28;20440;-42
2023/03/29 03:41:05;;;;;;;9.55;3.40;;;;;;;;;;5041517;28;20045;-41
2023/03/29 03:43:31;;;;;;;11.65;3.25;;;;;;;;;;5043896;28;20492;-42
2023/03/29 03:45:56;;;;;;;5.10;3.10;;;;;;;;;;5040579;28;20045;-42
2023/03/29 03:48:23;;;;;;;8.27;3.65;;;;;;;;;;5045435;28;20025;-41
2023/03/29 03:50:48;;;;;;;9.73;3.58;;;;;;;;;;5045402;28;20045;-45
2023/03/29 03:53:15;;;;;;;6.93;3.30;;;;;;;;;;5038485;28;20051;-46
2023/03/29 03:55:40;;;;;;;9.05;3.78;;;;;;;;;;5035579;28;20402;-41
2023/03/29 03:58:06;;;;;;;8.02;3.22;;;;;;;;;;5039028;28;20048;-42
2023/03/29 04:00:32;;;;;;;9.60;3.80;;;;;;;;;;5036831;28;20092;-41
2023/03/29 04:02:58;;;;;;;8.82;3.30;;;;;;;;;;5038232;28;20445;-44
2023/03/29 04:05:23;;;;;;;5.35;3.10;;;;;;;;;;5039614;28;20045;-52
2023/03/29 04:07:48;;;;;;;9.25;3.53;;;;;;;;;;5044623;28;20032;-47
2023/03/29 04:10:14;;;;;;;9.60;3.15;;;;;;;;;;5046081;28;20028;-42
2023/03/29 04:12:40;;;;;;;8.75;3.00;;;;;;;;;;5065457;28;20186;-42
2023/03/29 04:15:07;;;;;;;8.68;3.35;;;;;;;;;;5057338;28;20044;-42
2023/03/29 04:17:33;;;;;;;10.18;3.20;;;;;;;;;;5038441;28;20035;-47
2023/03/29 04:20:00;;;;;;;7.43;2.72;;;;;;;;;;5041151;28;20036;-45
2023/03/29 04:22:25;;;;;;;6.70;3.03;;;;;;;;;;5046437;28;20041;-41
2023/03/29 04:24:51;;;;;;;7.15;3.45;;;;;;;;;;5043682;28;20029;-48
2023/03/29 04:27:16;;;;;;;7.65;3.30;;;;;;;;;;5045552;28;20037;-43
2023/03/29 04:29:43;;;;;;;12.00;3.60;;;;;;;;;;5043394;28;20037;-45
2023/03/29 04:32:10;;;;;;;10.27;3.30;;;;;;;;;;5057850;28;20171;-43
2023/03/29 04:34:36;;;;;;;9.65;3.75;;;;;;;;;;5060268;28;20127;-48
2023/03/29 04:37:01;;;;;;;7.53;3.25;;;;;;;;;;5064524;28;20044;-44
2023/03/29 04:39:32;;;;;;;12.40;4.40;;;;;;;;;;5055036;28;20052;-49
2023/03/29 04:41:58;;;;;;;12.13;3.50;;;;;;;;;;5043978;28;20052;-41
2023/03/29 04:44:25;;;;;;;9.40;4.03;;;;;;;;;;5043465;28;20487;-43
2023/03/29 04:46:51;;;;;;;10.48;4.07;;;;;;;;;;5039704;28;20043;-41
2023/03/29 04:49:16;;;;;;;11.25;5.15;;;;;;;;;;5039182;28;20406;-41
2023/03/29 04:51:42;;;;;;;7.60;2.95;;;;;;;;;;5042299;28;20513;-42
2023/03/29 04:54:08;;;;;;;7.57;3.67;;;;;;;;;;5041171;28;20029;-45
2023/03/29 04:56:34;;;;;;;3.65;2.88;;;;;;;;;;5038632;28;20047;-44
2023/03/29 04:58:59;;;;;;;6.35;3.58;;;;;;;;;;5045097;28;20029;-48
2023/03/29 05:01:24;;;;;;;7.63;3.47;;;;;;;;;;5048150;28;20112;-42
2023/03/29 05:03:50;;;;;;;4.65;3.28;;;;;;;;;;5045241;28;20049;-45
2023/03/29 05:06:15;;;;;;;13.02;3.67;;;;;;;;;;5043173;28;20041;-42
2023/03/29 05:08:41;;;;;;;10.82;3.88;;;;;;;;;;5041304;28;20187;-44
2023/03/29 05:11:09;;;;;;;9.27;4.72;;;;;;;;;;5053476;28;22618;-42
2023/03/29 05:13:36;;;;;;;5.63;3.45;;;;;;;;;;5059044;28;20489;-41
2023/03/29 05:16:03;;;;;;;7.38;3.60;;;;;;;;;;5055690;28;20041;-46
2023/03/29 05:18:29;;;;;;;5.80;3.78;;;;;;;;;;5065260;28;20060;-50
2023/03/29 05:20:55;;;;;;;9.52;3.22;;;;;;;;;;5060940;28;20056;-43
2023/03/29 05:23:21;;;;;;;11.77;4.07;;;;;;;;;;5062709;28;20523;-44
2023/03/29 05:25:51;;;;;;;9.43;3.17;;;;;;;;;;5064240;28;20469;-44
2023/03/29 05:28:18;;;;;;;11.40;4.10;;;;;;;;;;5055786;28;20041;-44
2023/03/29 05:30:43;;;;;;;8.30;3.90;;;;;;;;;;5056115;28;20098;-41
2023/03/29 05:33:09;;;;;;;9.98;3.80;;;;;;;;;;5059250;28;20241;-44
2023/03/29 05:35:35;;;;;;;11.65;4.03;;;;;;;;;;5057809;28;20040;-45
2023/03/29 05:38:01;;;;;;;6.15;3.72;;;;;;;;;;5059115;28;20033;-42
2023/03/29 05:40:27;;;;;;;8.45;3.60;;;;;;;;;;5054112;28;20037;-41
2023/03/29 05:42:52;;;;;;;10.05;4.43;;;;;;;;;;5055193;28;20370;-41
2023/03/29 05:45:19;;;;;;;11.50;4.13;;;;;;;;;;5052832;28;20048;-47
2023/03/29 05:47:45;;;;;;;8.82;3.60;;;;;;;;;;5060032;28;20032;-47
2023/03/29 05:50:10;;;;;;;15.50;3.75;;;;;;;;;;5059630;28;20496;-46
2023/03/29 05:52:36;;;;;;;12.95;3.95;;;;;;;;;;5074519;28;20040;-41
2023/03/29 05:55:06;;;;;;;8.23;3.33;;;;;;;;;;5059125;28;20068;-42
2023/03/29 05:57:35;;;;;;;7.07;3.38;;;;;;;;;;5051780;28;20025;-42
2023/03/29 06:00:00;;;;;;;14.90;5.07;;;;;;;;;;5059117;28;20032;-43
2023/03/29 06:02:27;;;;;;;12.95;3.67;;;;;;;;;;5062776;28;20025;-42
2023/03/29 06:04:52;;;;;;;12.07;3.50;;;;;;;;;;5061547;28;20033;-42
2023/03/29 06:07:18;;;;;;;12.27;3.30;;;;;;;;;;5061912;28;20524;-42
2023/03/29 06:09:44;;;;;;;9.98;3.38;;;;;;;;;;5062257;28;20035;-42
2023/03/29 06:12:11;;;;;;;8.43;3.10;;;;;;;;;;5056891;28;20036;-49
2023/03/29 06:14:36;;;;;;;7.13;3.08;;;;;;;;;;5060507;28;20029;-46
2023/03/29 06:17:02;;;;;;;9.73;3.67;;;;;;;;;;5054298;28;20039;-45
2023/03/29 06:19:28;;;;;;;15.90;3.15;;;;;;;;;;5058873;28;20397;-48
2023/03/29 06:21:53;;;;;;;8.95;3.65;;;;;;;;;;5056752;28;20049;-47
2023/03/29 06:24:19;;;;;;;9.27;3.85;;;;;;;;;;5049743;28;20017;-45
2023/03/29 06:26:45;;;;;;;7.90;3.20;;;;;;;;;;5061228;28;20036;-48
2023/03/29 06:29:10;;;;;;;6.57;2.90;;;;;;;;;;5059209;28;20565;-50
2023/03/29 06:31:36;;;;;;;10.05;3.22;;;;;;;;;;5054984;28;20029;-44
2023/03/29 06:34:03;;;;;;;10.18;2.47;;;;;;;;;;5059808;28;20028;-47
2023/03/29 06:36:29;;;;;;;8.35;3.15;;;;;;;;;;5058301;28;20028;-43
2023/03/29 06:38:54;;;;;;;10.60;3.25;;;;;;;;;;5054079;28;20064;-50
2023/03/29 06:41:20;;;;;;;5.32;2.95;;;;;;;;;;5059579;28;20482;-44
2023/03/29 06:43:46;;;;;;;6.38;3.13;;;;;;;;;;5061258;28;20367;-50
2023/03/29 06:46:12;;;;;;;14.60;2.85;;;;;;;;;;5060081;28;20513;-44
2023/03/29 06:48:38;;;;;;;9.90;2.95;;;;;;;;;;5061315;28;20027;-46
2023/03/29 06:51:04;;;;;;;13.55;4.15;;;;;;;;;;5050062;28;20563;-45
2023/03/29 06:53:30;;;;;;;5.82;3.22;;;;;;;;;;5036645;28;20385;-42
2023/03/29 06:55:55;;;;;;;10.60;3.15;;;;;;;;;;5050312;28;20045;-43
2023/03/29 06:58:21;;;;;;;10.55;2.70;;;;;;;;;;5054890;28;20032;-44
2023/03/29 07:00:47;;;;;;;9.13;2.88;;;;;;;;;;5062854;28;20037;-41
2023/03/29 07:03:19;;;;;;;7.15;2.88;;;;;;;;;;5062428;28;20021;-45
2023/03/29 07:05:46;;;;;;;11.05;3.80;;;;;;;;;;5050627;28;20037;-41
2023/03/29 07:08:14;;;;;;;10.15;3.08;;;;;;;;;;5040369;28;20474;-45
2023/03/29 07:10:42;;;;;;;9.23;2.88;;;;;;;;;;5042673;28;20102;-47
2023/03/29 07:13:12;;;;;;;8.88;2.70;;;;;;;;;;5037205;28;20038;-42
2023/03/29 07:15:38;;;;;;;8.23;3.08;;;;;;;;;;5042197;28;20044;-44
2023/03/29 07:18:03;;;;;;;5.80;2.72;;;;;;;;;;5042121;28;20041;-46
2023/03/29 07:20:29;;;;;;;14.50;3.28;;;;;;;;;;5043710;28;20124;-42
2023/03/29 07:22:56;;;;;;;7.32;3.00;;;;;;;;;;5039729;28;20107;-43
2023/03/29 07:25:22;;;;;;;16.77;3.75;;;;;;;;;;5036916;28;20045;-41
2023/03/29 07:27:48;;;;;;;9.80;2.70;;;;;;;;;;5046220;28;20028;-45
2023/03/29 07:30:17;;;;;;;10.68;3.58;;;;;;;;;;5045999;28;20120;-43
2023/03/29 07:32:45;;;;;;;8.38;3.17;;;;;;;;;;5045431;28;20025;-44
2023/03/29 07:35:12;;;;;;;5.55;2.70;;;;;;;;;;5046964;28;20099;-49
2023/03/29 07:37:38;;;;;;;13.40;3.25;;;;;;;;;;5045938;28;20041;-43
2023/03/29 07:40:14;;;;;;;7.45;2.80;;;;;;;;;;5040609;28;20051;-43
2023/03/29 07:42:44;;;;;;;16.33;2.80;;;;;;;;;;5045582;28;20071;-43
2023/03/29 07:45:12;;;;;;;13.80;3.08;;;;;;;;;;5043767;28;20033;-48
2023/03/29 07:47:38;;;;;;;11.25;3.28;;;;;;;;;;5041182;28;20112;-44
2023/03/29 07:50:06;;;;;;;12.07;3.15;;;;;;;;;;5035693;28;20082;-48
2023/03/29 07:52:31;;;;;;;14.13;3.35;;;;;;;;;;5036781;28;20040;-45
2023/03/29 07:54:57;;;;;;;12.70;3.25;;;;;;;;;;5043289;28;20094;-41
2023/03/29 07:57:24;;;;;;;16.42;3.20;;;;;;;;;;5038288;28;20038;-42
2023/03/29 07:59:49;;;;;;;7.65;3.08;;;;;;;;;;5036201;28;20466;-42
2023/03/29 08:02:14;;;;;;;17.35;3.85;;;;;;;;;;5037070;28;20068;-41
2023/03/29 08:04:40;;;;;;;16.70;3.65;;;;;;;;;;5041434;28;20060;-42
2023/03/29 08:07:05;;;;;;;15.75;4.15;;;;;;;;;;5039044;28;20099;-41
2023/03/29 08:09:31;;;;;;;16.80;4.03;;;;;;;;;;5038450;28;20116;-41
2023/03/29 08:11:57;;;;;;;12.75;3.38;;;;;;;;;;5039203;28;20132;-42
2023/03/29 08:14:23;;;;;;;17.40;3.30;;;;;;;;;;5044900;28;20044;-41
2023/03/29 08:16:50;;;;;;;14.65;3.28;;;;;;;;;;5037482;28;20041;-42
2023/03/29 08:19:16;;;;;;;14.43;3.25;;;;;;;;;;5037569;28;20032;-44
2023/03/29 08:21:41;;;;;;;9.02;3.47;;;;;;;;;;5042205;28;20044;-41
2023/03/29 08:24:07;;;;;;;16.50;3.38;;;;;;;;;;5041497;28;20049;-45
2023/03/29 08:26:32;;;;;;;15.43;3.97;;;;;;;;;;5045550;28;20030;-41
2023/03/29 08:28:58;;;;;;;16.60;3.88;;;;;;;;;;5044577;28;20079;-41
2023/03/29 08:31:23;;;;;;;20.52;3.55;;;;;;;;;;5040648;28;20049;-42
2023/03/29 08:33:49;;;;;;;15.38;3.58;;;;;;;;;;5049242;28;20020;-42
2023/03/29 08:36:14;;;;;;;8.73;3.03;;;;;;;;;;5045377;28;20116;-42
2023/03/29 08:38:40;;;;;;;14.55;3.97;;;;;;;;;;5041814;28;20032;-41
2023/03/29 08:41:41;;;;;;;14.50;3.53;;;;;;;;;;5043283;28;20570;-44
2023/03/29 08:44:19;;;;;;;20.83;3.95;;;;;;;;;;5047306;28;20086;-41
2023/03/29 08:46:57;;;;;;;11.35;4.05;;;;;;;;;;5042724;28;20095;-42
2023/03/29 08:49:24;;;;;;;15.70;4.60;;;;;;;;;;5043937;28;20037;-43
2023/03/29 08:52:00;;;;;;;12.77;3.80;;;;;;;;;;5041242;28;20123;-41
2023/03/29 08:54:47;;;;;;;14.20;3.92;;;;;;;;;;5042698;28;20704;-42
2023/03/29 08:57:17;;;;;;;11.10;3.70;;;;;;;;;;5042202;28;20385;-41
2023/03/29 08:59:45;;;;;;;15.52;4.15;;;;;;;;;;5044491;28;20064;-47
2023/03/29 09:02:21;;;;;;;21.15;4.55;;;;;;;;;;5035419;28;20694;-41
2023/03/29 09:04:47;;;;;;;16.80;4.32;;;;;;;;;;5043856;28;20419;-45
2023/03/29 09:07:14;;;;;;;23.08;4.63;;;;;;;;;;5036371;28;20120;-42
2023/03/29 09:09:41;;;;;;;15.77;3.95;;;;;;;;;;5041669;28;20029;-42
2023/03/29 09:12:15;;;;;;;20.75;4.13;;;;;;;;;;5040605;28;20040;-41
2023/03/29 09:14:46;;;;;;;15.10;3.80;;;;;;;;;;5040344;28;20017;-43
2023/03/29 09:17:26;;;;;;;12.43;3.47;;;;;;;;;;5044859;28;20041;-41
2023/03/29 09:20:05;;;;;;;13.35;3.53;;;;;;;;;;5045717;28;20147;-42
2023/03/29 09:22:42;;;;;;;11.55;4.55;;;;;;;;;;5043528;28;20037;-42
2023/03/29 09:25:20;;;;;;;16.35;4.38;;;;;;;;;;5039874;28;20029;-42
2023/03/29 09:28:16;;;;;;;14.93;3.40;;;;;;;;;;5051070;28;20074;-42
2023/03/29 09:30:50;;;;;;;15.77;4.05;;;;;;;;;;5045123;28;20090;-46
2023/03/29 09:33:35;;;;;;;18.45;3.90;;;;;;;;;;5049098;28;20116;-42
2023/03/29 09:36:23;;;;;;;12.63;3.38;;;;;;;;;;5043613;28;20132;-42
2023/03/29 09:38:52;;;;;;;16.27;4.13;;;;;;;;;;5047885;28;20040;-41
2023/03/29 09:41:28;;;;;;;16.88;4.72;;;;;;;;;;5044135;28;20037;-42
2023/03/29 09:43:55;;;;;;;22.33;4.28;;;;;;;;;;5036650;28;20033;-42
2023/03/29 09:46:27;;;;;;;18.42;4.90;;;;;;;;;;5045029;28;20048;-42
2023/03/29 09:48:54;;;;;;;19.70;4.80;;;;;;;;;;5037747;28;20041;-41
2023/03/29 09:51:25;;;;;;;14.77;3.95;;;;;;;;;;5041773;28;20039;-43
2023/03/29 09:53:53;;;;;;;20.75;4.75;;;;;;;;;;5038702;28;20036;-41
2023/03/29 09:56:19;;;;;;;21.58;4.25;;;;;;;;;;5041975;28;20093;-41
2023/03/29 09:58:45;;;;;;;22.85;4.70;;;;;;;;;;5043488;28;20065;-41
2023/03/29 10:01:16;;;;;;;19.35;4.25;;;;;;;;;;5046888;28;20037;-43
2023/03/29 10:03:46;;;;;;;13.65;4.45;;;;;;;;;;5044273;28;20029;-41
2023/03/29 10:06:11;;;;;;;18.40;4.57;;;;;;;;;;5055473;28;20037;-41
2023/03/29 10:08:48;;;;;;;18.23;4.78;;;;;;;;;;5064423;28;20385;-42
2023/03/29 10:11:27;;;;;;;22.60;3.97;;;;;;;;;;5055072;28;20056;-44
2023/03/29 10:13:55;;;;;;;18.77;4.50;;;;;;;;;;5045390;28;20041;-44
2023/03/29 10:16:29;;;;;;;13.75;4.45;;;;;;;;;;5045936;28;20047;-40
2023/03/29 10:18:55;;;;;;;14.88;3.85;;;;;;;;;;5049031;28;20071;-41
2023/03/29 10:21:22;;;;;;;22.27;4.30;;;;;;;;;;5045385;28;20615;-42
2023/03/29 10:23:48;;;;;;;21.00;4.45;;;;;;;;;;5047511;28;20040;-42
2023/03/29 10:26:37;;;;;;;16.98;3.97;;;;;;;;;;5045650;28;20045;-42
2023/03/29 10:29:06;;;;;;;14.75;4.07;;;;;;;;;;5044589;28;20033;-41
2023/03/29 10:31:32;;;;;;;20.10;4.80;;;;;;;;;;5056099;28;20025;-41
2023/03/29 10:34:02;;;;;;;14.65;4.13;;;;;;;;;;5058359;28;20033;-42
2023/03/29 10:36:28;;;;;;;17.38;4.82;;;;;;;;;;5054724;28;20055;-41
2023/03/29 10:38:57;;;;;;;18.42;4.00;;;;;;;;;;5059277;28;20068;-44
2023/03/29 10:41:24;;;;;;;13.93;3.88;;;;;;;;;;5048359;28;20044;-41
2023/03/29 10:43:50;;;;;;;19.33;3.72;;;;;;;;;;5043741;28;20024;-42
2023/03/29 10:46:46;;;;;;;21.20;4.60;;;;;;;;;;5040638;28;20048;-41
2023/03/29 10:49:18;;;;;;;21.45;5.00;;;;;;;;;;5039397;28;20037;-42
2023/03/29 10:51:45;;;;;;;15.48;3.78;;;;;;;;;;5037006;28;20045;-42
2023/03/29 10:54:14;;;;;;;23.02;4.30;;;;;;;;;;5038460;28;20078;-42
2023/03/29 10:56:48;;;;;;;24.08;4.70;;;;;;;;;;5040012;28;20049;-41
2023/03/29 10:59:20;;;;;;;20.60;4.03;;;;;;;;;;5040962;28;20602;-47
2023/03/29 11:02:12;;;;;;;16.38;4.50;;;;;;;;;;5053908;28;20645;-41
2023/03/29 11:05:08;;;;;;;17.50;3.90;;;;;;;;;;5018813;28;20045;-41
2023/03/29 11:07:55;;;;;;;15.35;3.53;;;;;;;;;;5015653;28;20168;-48
2023/03/29 11:10:35;;;;;;;13.75;3.50;;;;;;;;;;4999605;28;20062;-42
2023/03/29 11:13:23;;;;;;;13.50;3.38;;;;;;;;;;4994781;28;20054;-41
2023/03/29 11:16:18;;;;;;;17.50;4.47;;;;;;;;;;5003550;28;20062;-42
2023/03/29 11:19:16;;;;;;;17.45;3.97;;;;;;;;;;4955424;28;20039;-42
2023/03/29 11:21:42;;;;;;;16.45;3.78;;;;;;;;;;4965145;28;20532;-42
2023/03/29 11:24:29;;;;;;;20.35;4.25;;;;;;;;;;4970766;28;20089;-42
2023/03/29 11:27:39;;;;;;;18.20;3.97;;;;;;;;;;4965678;28;20054;-42
2023/03/29 11:30:22;;;;;;;16.25;4.03;;;;;;;;;;4961398;28;20038;-42
2023/03/29 11:33:00;;;;;;;22.80;4.43;;;;;;;;;;4965542;28;20042;-45
2023/03/29 11:35:42;;;;;;;21.70;4.25;;;;;;;;;;4964933;28;20496;-45
2023/03/29 11:38:18;;;;;;;19.40;3.67;;;;;;;;;;4965759;28;20034;-41
2023/03/29 11:40:56;;;;;;;12.95;3.67;;;;;;;;;;4966106;28;20141;-42
2023/03/29 11:43:30;;;;;;;17.25;4.05;;;;;;;;;;4998372;28;20041;-43
2023/03/29 11:46:17;;;;;;;15.48;4.70;;;;;;;;;;5000897;28;20487;-42
2023/03/29 11:48:52;;;;;;;17.63;4.28;;;;;;;;;;5002935;28;20042;-43
2023/03/29 11:51:24;;;;;;;10.38;3.47;;;;;;;;;;5001320;28;20037;-42
2023/03/29 11:54:21;;;;;;;19.63;3.42;;;;;;;;;;4998783;28;20072;-42
2023/03/29 11:56:55;;;;;;;11.35;3.58;;;;;;;;;;5048688;28;20041;-46
2023/03/29 11:59:33;;;;;;;20.80;4.22;;;;;;;;;;5057481;28;20040;-47
2023/03/29 12:02:11;;;;;;;14.10;3.88;;;;;;;;;;5060928;28;20227;-48
2023/03/29 12:04:45;;;;;;;17.58;4.45;;;;;;;;;;5057436;28;20032;-47
2023/03/29 12:07:29;;;;;;;25.38;4.40;;;;;;;;;;5040878;28;20053;-45
2023/03/29 12:10:08;;;;;;;18.58;3.60;;;;;;;;;;5040853;28;20124;-43
2023/03/29 12:13:08;;;;;;;15.25;3.78;;;;;;;;;;5037438;28;20072;-45
2023/03/29 12:15:49;;;;;;;19.65;4.45;;;;;;;;;;5040504;28;20072;-42
2023/03/29 12:18:21;;;;;;;18.65;4.47;;;;;;;;;;5046626;28;20021;-42
2023/03/29 12:20:52;;;;;;;16.23;3.92;;;;;;;;;;5043450;28;20107;-42
2023/03/29 12:23:18;;;;;;;14.65;4.00;;;;;;;;;;5042469;28;20028;-42
2023/03/29 12:26:19;;;;;;;13.25;4.38;;;;;;;;;;5048495;28;21540;-41
2023/03/29 12:29:16;;;;;;;17.67;4.18;;;;;;;;;;5065729;28;20040;-42
2023/03/29 12:31:47;;;;;;;16.73;4.78;;;;;;;;;;5045151;28;20036;-43
2023/03/29 12:34:36;;;;;;;18.45;4.80;;;;;;;;;;5064370;28;20040;-43
2023/03/29 12:37:30;;;;;;;23.98;5.00;;;;;;;;;;5068646;28;20500;-42
2023/03/29 12:40:11;;;;;;;19.30;4.50;;;;;;;;;;5065234;28;20110;-41
2023/03/29 12:42:45;;;;;;;15.82;3.70;;;;;;;;;;5069224;28;20040;-45
2023/03/29 12:45:18;;;;;;;16.35;3.97;;;;;;;;;;5061852;28;20021;-43
2023/03/29 12:47:44;;;;;;;18.60;4.85;;;;;;;;;;5070821;28;20032;-49
2023/03/29 12:50:31;;;;;;;18.63;4.30;;;;;;;;;;5069791;28;20033;-43
2023/03/29 12:53:31;;;;;;;15.23;3.97;;;;;;;;;;5064611;28;20072;-43
2023/03/29 12:56:00;;;;;;;17.90;3.63;;;;;;;;;;5056922;28;20041;-43
2023/03/29 12:58:38;;;;;;;12.73;3.80;;;;;;;;;;5077507;28;20504;-42
2023/03/29 13:01:10;;;;;;;16.17;3.83;;;;;;;;;;5061564;28;20171;-45
2023/03/29 13:03:38;;;;;;;17.05;3.83;;;;;;;;;;5072400;28;20032;-42
2023/03/29 13:06:07;;;;;;;21.17;4.57;;;;;;;;;;5059385;28;20157;-46
2023/03/29 13:08:43;;;;;;;17.92;5.28;;;;;;;;;;5061412;28;20028;-43
2023/03/29 13:11:30;;;;;;;21.95;4.40;;;;;;;;;;5062435;28;20097;-47
2023/03/29 13:13:59;;;;;;;17.42;4.40;;;;;;;;;;5061969;28;20488;-41
2023/03/29 13:16:33;;;;;;;19.65;4.55;;;;;;;;;;5059377;28;20033;-43
2023/03/29 13:19:42;;;;;;;15.10;4.00;;;;;;;;;;5062783;28;20029;-43
2023/03/29 13:22:14;;;;;;;24.38;3.67;;;;;;;;;;5060080;28;20460;-48
2023/03/29 13:24:50;;;;;;;13.95;3.47;;;;;;;;;;5057598;28;20036;-41
2023/03/29 13:27:25;;;;;;;21.10;5.25;;;;;;;;;;5061502;28;20086;-44
2023/03/29 13:30:13;;;;;;;19.35;3.67;;;;;;;;;;5062161;28;20060;-44
2023/03/29 13:33:20;;;;;;;19.17;4.30;;;;;;;;;;5059048;28;20063;-47
2023/03/29 13:36:00;;;;;;;22.35;5.13;;;;;;;;;;5058056;28;20049;-40
2023/03/29 13:38:30;;;;;;;20.73;4.55;;;;;;;;;;5059078;28;20044;-43
2023/03/29 13:41:11;;;;;;;21.08;4.40;;;;;;;;;;5054251;28;20045;-43
2023/03/29 13:43:50;;;;;;;13.23;4.22;;;;;;;;;;5058421;28;20032;-43
2023/03/29 13:46:23;;;;;;;25.52;5.07;;;;;;;;;;5058047;28;20040;-42
2023/03/29 13:48:59;;;;;;;18.27;4.35;;;;;;;;;;5060218;28;20477;-41
2023/03/29 13:51:37;;;;;;;19.55;3.88;;;;;;;;;;5062407;28;20522;-42
2023/03/29 13:54:13;;;;;;;20.45;4.55;;;;;;;;;;5056744;28;20036;-46
2023/03/29 13:56:51;;;;;;;14.40;3.78;;;;;;;;;;5060798;28;20032;-42
2023/03/29 13:59:24;;;;;;;14.52;3.97;;;;;;;;;;5057397;28;20043;-43
2023/03/29 14:01:56;;;;;;;19.83;4.40;;;;;;;;;;5056241;28;20485;-50
2023/03/29 14:04:27;;;;;;;23.90;4.72;;;;;;;;;;5042256;28;20115;-44
2023/03/29 14:06:56;;;;;;;22.85;5.10;;;;;;;;;;5053618;28;20530;-48
2023/03/29 14:09:29;;;;;;;23.65;4.60;;;;;;;;;;5059660;28;20449;-44
2023/03/29 14:11:58;;;;;;;20.33;4.22;;;;;;;;;;5048565;28;20401;-44
2023/03/29 14:14:26;;;;;;;20.08;4.20;;;;;;;;;;5045345;28;20083;-47
2023/03/29 14:16:54;;;;;;;14.52;3.85;;;;;;;;;;5056881;28;20498;-49
2023/03/29 14:19:30;;;;;;;13.98;3.85;;;;;;;;;;5061560;28;20157;-44
2023/03/29 14:21:57;;;;;;;17.50;4.30;;;;;;;;;;5062880;28;20043;-45
2023/03/29 14:24:27;;;;;;;21.77;4.43;;;;;;;;;;5061751;28;20031;-46
2023/03/29 14:26:53;;;;;;;17.73;4.47;;;;;;;;;;5059996;28;20400;-47
2023/03/29 14:29:21;;;;;;;15.70;3.38;;;;;;;;;;5057751;28;20028;-47
2023/03/29 14:31:48;;;;;;;20.63;4.15;;;;;;;;;;5046715;28;20045;-43
2023/03/29 14:34:15;;;;;;;16.92;3.80;;;;;;;;;;5047146;28;20029;-41
2023/03/29 14:36:44;;;;;;;17.17;3.92;;;;;;;;;;5053405;28;20044;-41
2023/03/29 14:39:15;;;;;;;17.33;3.83;;;;;;;;;;5060509;28;20389;-42
2023/03/29 14:41:45;;;;;;;19.70;3.78;;;;;;;;;;5061621;28;20162;-43
2023/03/29 14:44:12;;;;;;;15.73;4.13;;;;;;;;;;5059950;28;20036;-41
2023/03/29 14:46:38;;;;;;;15.20;3.65;;;;;;;;;;5047754;28;20362;-42
2023/03/29 14:49:05;;;;;;;7.82;2.67;;;;;;;;;;5044967;28;20035;-45
2023/03/29 14:51:30;;;;;;;17.75;3.58;;;;;;;;;;5047099;28;20025;-42
2023/03/29 14:53:59;;;;;;;14.90;3.83;;;;;;;;;;5046917;28;20033;-41
2023/03/29 14:56:25;;;;;;;14.20;3.40;;;;;;;;;;5041733;28;20033;-41
2023/03/29 14:58:55;;;;;;;11.40;3.33;;;;;;;;;;5036686;28;20465;-43